Time;durP1;ratioP1;P1;durP2;ratioP2;P2;SDS_P1;SDS_P2;PMS_P1;PMS_P2;Temp;Humidity;BMP_temperature;BMP_pressure;BME280_temperature;BME280_humidity;BME280_pressure;Samples;Min_cycle;Max_cycle;Signal;HPM_P1;HPM_P2
2021/12/28 00:01:06;;;;;;;6.53;4.60;;;8.80;99.90;;;;;;5034761;28;20532;-79
2021/12/28 00:03:34;;;;;;;9.13;4.50;;;8.80;99.90;;;;;;5039036;28;21022;-80
2021/12/28 00:06:01;;;;;;;7.60;4.30;;;8.80;99.90;;;;;;5045797;28;20451;-81
2021/12/28 00:08:28;;;;;;;7.03;4.83;;;8.90;99.90;;;;;;5027107;28;20458;-80
2021/12/28 00:10:56;;;;;;;5.50;3.90;;;9.00;99.90;;;;;;5026586;28;20448;-81
2021/12/28 00:13:24;;;;;;;4.70;4.13;;;9.00;99.90;;;;;;5026468;28;20808;-81
2021/12/28 00:16:02;;;;;;;5.13;4.60;;;8.90;99.90;;;;;;5027208;28;20521;-80
2021/12/28 00:18:30;;;;;;;5.80;4.03;;;9.00;99.90;;;;;;5028333;28;20454;-80
2021/12/28 00:20:59;;;;;;;9.40;4.27;;;8.90;99.90;;;;;;5026334;28;20430;-79
2021/12/28 00:23:30;;;;;;;5.27;4.60;;;8.80;99.90;;;;;;5028426;28;20479;-80
2021/12/28 00:25:58;;;;;;;7.27;4.07;;;8.80;99.90;;;;;;5032249;28;20457;-79
2021/12/28 00:28:27;;;;;;;5.20;4.00;;;8.80;99.90;;;;;;5029471;28;20445;-78
2021/12/28 00:30:54;;;;;;;6.97;3.60;;;8.90;99.90;;;;;;5026871;28;20461;-80
2021/12/28 00:33:24;;;;;;;6.70;3.43;;;8.90;99.90;;;;;;5022622;28;20461;-79
2021/12/28 00:35:52;;;;;;;6.33;3.90;;;8.90;99.90;;;;;;5033963;28;20446;-77
2021/12/28 00:38:22;;;;;;;6.77;3.77;;;8.90;99.90;;;;;;5034296;28;20448;-78
2021/12/28 00:40:50;;;;;;;4.80;3.70;;;9.00;99.90;;;;;;5034232;28;21150;-80
2021/12/28 00:43:18;;;;;;;7.77;3.50;;;9.00;99.90;;;;;;5027029;28;20492;-78
2021/12/28 00:45:47;;;;;;;4.80;3.80;;;8.90;99.90;;;;;;5031260;28;20463;-79
2021/12/28 00:48:14;;;;;;;3.70;3.30;;;8.80;99.90;;;;;;5029793;28;20455;-78
2021/12/28 00:50:42;;;;;;;7.03;3.67;;;8.70;99.90;;;;;;5031471;28;20446;-79
2021/12/28 00:53:09;;;;;;;6.73;3.87;;;8.60;99.90;;;;;;5034341;28;20473;-79
2021/12/28 00:55:35;;;;;;;5.20;3.43;;;8.50;99.90;;;;;;5027498;28;20471;-79
2021/12/28 00:58:02;;;;;;;6.03;2.80;;;8.40;99.90;;;;;;5030437;28;20453;-78
2021/12/28 01:00:31;;;;;;;6.00;3.70;;;8.20;99.90;;;;;;5029143;28;20444;-79
2021/12/28 01:03:01;;;;;;;4.47;3.37;;;8.20;99.90;;;;;;5030582;28;20841;-78
2021/12/28 01:05:32;;;;;;;6.90;3.90;;;8.10;99.90;;;;;;5029907;28;20441;-79
2021/12/28 01:07:59;;;;;;;5.60;3.30;;;8.00;99.90;;;;;;5029674;28;20974;-80
2021/12/28 01:10:29;;;;;;;4.83;3.70;;;7.80;99.90;;;;;;5032073;28;20974;-78
2021/12/28 01:12:57;;;;;;;4.23;3.00;;;7.70;99.90;;;;;;5035076;28;20457;-78
2021/12/28 01:15:25;;;;;;;4.83;3.30;;;7.60;99.90;;;;;;5026670;28;20441;-80
2021/12/28 01:17:52;;;;;;;5.57;4.00;;;7.50;99.90;;;;;;5029357;28;20537;-79
2021/12/28 01:20:21;;;;;;;10.40;3.97;;;7.40;99.90;;;;;;5029095;28;20452;-79
2021/12/28 01:22:48;;;;;;;6.27;3.70;;;7.40;99.90;;;;;;5031910;28;20496;-79
2021/12/28 01:25:17;;;;;;;3.93;2.93;;;7.30;99.90;;;;;;5032163;28;20819;-79
2021/12/28 01:27:44;;;;;;;5.87;3.40;;;7.30;99.90;;;;;;5026485;28;20437;-79
2021/12/28 01:30:13;;;;;;;5.87;3.40;;;7.20;99.90;;;;;;5030474;28;20452;-79
2021/12/28 01:32:40;;;;;;;5.63;4.13;;;7.20;99.90;;;;;;5036347;28;20447;-79
2021/12/28 01:35:10;;;;;;;6.83;3.37;;;7.10;99.90;;;;;;5036746;28;20489;-78
2021/12/28 01:37:38;;;;;;;5.57;3.07;;;7.00;99.90;;;;;;5037470;28;20444;-79
2021/12/28 01:40:08;;;;;;;5.07;3.37;;;7.00;99.90;;;;;;5038252;28;20456;-79
2021/12/28 01:42:53;;;;;;;6.50;3.40;;;6.90;99.90;;;;;;5040579;28;21009;-79
2021/12/28 01:45:29;;;;;;;4.60;3.33;;;6.80;99.90;;;;;;5056557;28;20833;-78
2021/12/28 01:47:56;;;;;;;6.07;2.70;;;6.80;99.90;;;;;;5052091;28;20464;-79
2021/12/28 01:50:23;;;;;;;5.80;3.13;;;6.70;99.90;;;;;;5036661;28;20459;-79
2021/12/28 01:52:51;;;;;;;5.80;3.20;;;6.70;99.90;;;;;;5048596;28;21063;-78
2021/12/28 01:55:18;;;;;;;5.50;3.43;;;6.60;99.90;;;;;;5057334;28;20455;-78
2021/12/28 01:57:45;;;;;;;5.70;2.97;;;6.60;99.90;;;;;;5057306;28;20455;-80
2021/12/28 02:00:13;;;;;;;4.10;2.97;;;6.60;99.90;;;;;;5045931;28;20470;-80
2021/12/28 02:02:41;;;;;;;8.93;2.73;;;6.50;99.90;;;;;;5039494;28;20498;-79
2021/12/28 02:05:09;;;;;;;4.67;3.00;;;6.50;99.90;;;;;;5038735;28;20455;-79
2021/12/28 02:07:35;;;;;;;5.83;3.40;;;6.50;99.90;;;;;;5038898;28;20465;-80
2021/12/28 02:10:05;;;;;;;5.17;3.43;;;6.50;99.90;;;;;;5037318;28;20461;-79
2021/12/28 02:12:32;;;;;;;8.23;3.60;;;6.50;99.90;;;;;;5026802;28;20448;-79
2021/12/28 02:15:05;;;;;;;4.03;3.13;;;6.40;99.90;;;;;;5019522;28;20464;-79
2021/12/28 02:17:32;;;;;;;8.60;3.53;;;6.50;99.90;;;;;;5056708;28;20466;-80
2021/12/28 02:20:06;;;;;;;6.13;2.97;;;6.50;99.90;;;;;;5045112;28;20463;-76
2021/12/28 02:22:33;;;;;;;7.43;3.33;;;6.60;99.90;;;;;;5016816;28;21116;-79
2021/12/28 02:24:59;;;;;;;6.33;2.67;;;6.60;99.90;;;;;;5036987;28;20453;-79
2021/12/28 02:27:29;;;;;;;6.80;2.90;;;6.70;99.90;;;;;;5037782;28;20464;-78
2021/12/28 02:29:56;;;;;;;6.63;2.80;;;6.70;99.90;;;;;;5044439;28;20463;-78
2021/12/28 02:32:26;;;;;;;7.77;2.67;;;6.70;99.90;;;;;;5055650;28;20454;-79
2021/12/28 02:34:53;;;;;;;5.80;3.03;;;6.80;99.90;;;;;;5048384;28;20459;-79
2021/12/28 02:37:22;;;;;;;5.53;2.93;;;6.90;99.90;;;;;;5037653;28;20476;-79
2021/12/28 02:39:49;;;;;;;6.17;2.90;;;6.90;99.90;;;;;;5041810;28;20456;-80
2021/12/28 02:42:17;;;;;;;6.80;3.50;;;7.00;99.90;;;;;;5056302;28;20461;-79
2021/12/28 02:44:44;;;;;;;11.03;2.67;;;7.00;99.90;;;;;;5054661;28;20540;-78
2021/12/28 02:47:11;;;;;;;5.70;2.90;;;7.10;99.90;;;;;;5037011;28;20459;-80
2021/12/28 02:49:38;;;;;;;5.20;3.10;;;7.20;99.90;;;;;;5049238;28;20448;-79
2021/12/28 02:52:09;;;;;;;9.13;3.60;;;7.20;99.90;;;;;;5056536;28;20458;-78
2021/12/28 02:54:38;;;;;;;16.23;3.63;;;7.30;99.90;;;;;;5044942;28;20526;-79
2021/12/28 02:57:06;;;;;;;11.70;4.07;;;7.40;99.90;;;;;;5035835;28;20831;-79
2021/12/28 02:59:33;;;;;;;5.70;3.13;;;7.50;99.90;;;;;;5036113;28;20451;-79
2021/12/28 03:02:00;;;;;;;6.10;3.30;;;7.50;99.90;;;;;;5042226;28;20538;-80
2021/12/28 03:04:27;;;;;;;10.63;3.87;;;7.50;99.90;;;;;;5055475;28;20498;-79
2021/12/28 03:06:55;;;;;;;7.70;2.80;;;7.50;99.90;;;;;;5053346;28;20459;-80
2021/12/28 03:09:23;;;;;;;11.37;3.60;;;7.50;99.90;;;;;;5055611;28;20448;-79
2021/12/28 03:11:51;;;;;;;11.97;3.57;;;7.50;99.90;;;;;;5053756;28;20487;-79
2021/12/28 03:14:18;;;;;;;7.17;3.57;;;7.50;99.90;;;;;;5049052;28;20474;-79
2021/12/28 03:16:45;;;;;;;10.93;4.03;;;7.50;99.90;;;;;;5054340;28;20459;-80
2021/12/28 03:19:12;;;;;;;7.10;2.70;;;7.50;99.90;;;;;;5056370;28;20459;-79
2021/12/28 03:21:40;;;;;;;10.70;4.23;;;7.50;99.90;;;;;;5050931;28;20950;-79
2021/12/28 03:24:08;;;;;;;10.93;3.13;;;7.50;99.90;;;;;;5035874;28;21061;-80
2021/12/28 03:26:35;;;;;;;15.10;3.40;;;7.50;99.90;;;;;;5036428;28;21129;-79
2021/12/28 03:29:04;;;;;;;13.63;2.90;;;7.60;99.90;;;;;;5035051;28;20452;-79
2021/12/28 03:31:31;;;;;;;18.50;3.70;;;7.70;99.90;;;;;;5038358;28;20444;-79
2021/12/28 03:33:58;;;;;;;11.03;3.47;;;7.70;99.90;;;;;;5054619;28;20467;-79
2021/12/28 03:36:28;;;;;;;12.20;3.73;;;7.80;99.90;;;;;;5035751;28;20826;-78
2021/12/28 03:38:56;;;;;;;10.67;3.00;;;7.70;99.90;;;;;;5035394;28;20459;-80
2021/12/28 03:41:25;;;;;;;12.23;3.10;;;7.70;99.90;;;;;;5051251;28;20461;-80
2021/12/28 03:43:54;;;;;;;10.53;4.93;;;7.80;99.90;;;;;;5055103;28;20569;-79
2021/12/28 03:46:24;;;;;;;12.63;3.63;;;7.80;99.90;;;;;;5037259;28;20457;-79
2021/12/28 03:48:51;;;;;;;14.83;3.50;;;7.90;99.90;;;;;;5034831;28;20455;-79
2021/12/28 03:51:18;;;;;;;16.83;3.83;;;8.00;99.90;;;;;;5035118;28;20453;-80
2021/12/28 03:53:46;;;;;;;13.37;3.10;;;8.00;99.90;;;;;;5044723;28;20467;-80
2021/12/28 03:56:15;;;;;;;16.23;4.10;;;8.00;99.90;;;;;;5054692;28;20452;-78
2021/12/28 03:58:43;;;;;;;29.83;4.47;;;8.00;99.90;;;;;;5034841;28;20483;-80
2021/12/28 04:01:13;;;;;;;12.67;3.50;;;8.00;99.90;;;;;;5036712;28;20460;-80
2021/12/28 04:03:41;;;;;;;16.57;3.07;;;8.10;99.90;;;;;;5034932;28;20888;-79
2021/12/28 04:06:09;;;;;;;10.60;2.80;;;8.10;99.90;;;;;;5052345;28;20452;-79
2021/12/28 04:08:38;;;;;;;10.87;3.23;;;8.20;99.90;;;;;;5034630;28;20519;-79
2021/12/28 04:11:15;;;;;;;10.40;3.60;;;8.20;99.90;;;;;;5050037;28;20455;-79
2021/12/28 04:13:43;;;;;;;13.60;3.50;;;8.20;99.90;;;;;;5054687;28;20476;-79
2021/12/28 04:16:11;;;;;;;12.67;3.70;;;8.20;99.90;;;;;;5037135;28;20484;-80
2021/12/28 04:18:38;;;;;;;7.87;2.63;;;8.20;99.90;;;;;;5035566;28;20449;-78
2021/12/28 04:21:07;;;;;;;15.70;3.17;;;8.20;99.90;;;;;;5042450;28;20456;-79
2021/12/28 04:23:34;;;;;;;16.87;3.37;;;8.20;99.90;;;;;;5036806;28;20489;-80
2021/12/28 04:26:01;;;;;;;14.93;4.63;;;8.20;99.90;;;;;;5041083;28;20956;-78
2021/12/28 04:28:27;;;;;;;14.63;3.63;;;8.20;99.90;;;;;;5036695;28;20453;-80
2021/12/28 04:30:54;;;;;;;26.33;3.07;;;8.20;99.90;;;;;;5034834;28;20470;-79
2021/12/28 04:33:21;;;;;;;23.80;3.50;;;8.30;99.90;;;;;;5034740;28;20996;-80
2021/12/28 04:35:49;;;;;;;13.23;3.47;;;8.30;99.90;;;;;;5054709;28;20458;-78
2021/12/28 04:38:17;;;;;;;16.77;2.70;;;8.30;99.90;;;;;;5038250;28;20456;-80
2021/12/28 04:40:44;;;;;;;36.93;4.57;;;8.40;99.90;;;;;;5053982;28;20452;-80
2021/12/28 04:43:12;;;;;;;11.83;3.90;;;8.60;99.90;;;;;;5057422;28;20491;-79
2021/12/28 04:45:39;;;;;;;17.07;3.60;;;8.70;99.90;;;;;;5039584;28;20465;-80
2021/12/28 04:48:07;;;;;;;13.90;3.67;;;8.60;99.90;;;;;;5032845;28;20446;-79
2021/12/28 04:50:38;;;;;;;11.00;3.27;;;8.60;99.90;;;;;;5017577;28;20450;-80
2021/12/28 04:53:08;;;;;;;13.80;3.10;;;8.70;99.90;;;;;;5015574;28;20467;-79
2021/12/28 04:55:38;;;;;;;15.90;3.60;;;8.70;99.90;;;;;;5018046;28;20456;-79
2021/12/28 04:58:05;;;;;;;15.97;2.93;;;8.60;99.90;;;;;;5035158;28;20461;-80
2021/12/28 05:00:32;;;;;;;21.07;3.87;;;8.40;99.90;;;;;;5035200;28;20501;-80
2021/12/28 05:02:59;;;;;;;12.67;4.23;;;8.40;99.90;;;;;;5036058;28;20506;-80
2021/12/28 05:05:26;;;;;;;20.27;3.60;;;8.40;99.90;;;;;;5055061;28;20454;-78
2021/12/28 05:07:53;;;;;;;17.50;4.10;;;8.40;99.90;;;;;;5050232;28;20452;-78
2021/12/28 05:10:20;;;;;;;8.67;3.20;;;8.50;99.90;;;;;;5054355;28;20468;-79
2021/12/28 05:12:50;;;;;;;11.87;3.97;;;8.40;99.90;;;;;;5039520;28;20475;-79
2021/12/28 05:15:18;;;;;;;8.00;2.77;;;8.40;99.90;;;;;;5035180;28;20452;-80
2021/12/28 05:17:45;;;;;;;15.67;3.30;;;8.40;99.90;;;;;;5038768;28;20540;-78
2021/12/28 05:20:13;;;;;;;11.50;3.30;;;8.30;99.90;;;;;;5033564;28;20865;-79
2021/12/28 05:22:40;;;;;;;10.47;3.00;;;8.30;99.90;;;;;;5036754;28;20457;-78
2021/12/28 05:25:08;;;;;;;10.03;2.70;;;8.30;99.90;;;;;;5043251;28;20487;-78
2021/12/28 05:27:36;;;;;;;23.00;6.40;;;8.40;99.90;;;;;;5047332;28;20445;-78
2021/12/28 05:30:07;;;;;;;16.77;4.80;;;8.40;99.90;;;;;;5042341;28;20956;-78
2021/12/28 05:32:34;;;;;;;11.50;3.33;;;8.50;99.90;;;;;;5056629;28;20474;-79
2021/12/28 05:35:01;;;;;;;13.00;3.13;;;8.60;99.90;;;;;;5051597;28;20454;-80
2021/12/28 05:37:27;;;;;;;13.50;3.40;;;8.60;99.90;;;;;;5036483;28;20821;-80
2021/12/28 05:39:54;;;;;;;14.77;3.40;;;8.70;99.90;;;;;;5037933;28;20465;-79
2021/12/28 05:42:21;;;;;;;11.30;3.33;;;8.70;99.90;;;;;;5035975;28;20457;-78
2021/12/28 05:44:48;;;;;;;14.37;3.33;;;8.70;99.90;;;;;;5048308;28;20498;-79
2021/12/28 05:47:17;;;;;;;11.40;2.80;;;8.70;99.90;;;;;;5050610;28;20454;-77
2021/12/28 05:49:44;;;;;;;11.67;4.43;;;8.70;99.90;;;;;;5055198;28;20458;-79
2021/12/28 05:52:10;;;;;;;11.40;3.20;;;8.70;99.90;;;;;;5046507;28;20838;-79
2021/12/28 05:54:37;;;;;;;11.73;3.43;;;8.70;99.90;;;;;;5046702;28;20469;-77
2021/12/28 05:57:05;;;;;;;12.97;4.13;;;8.60;99.90;;;;;;5053305;28;20838;-79
2021/12/28 05:59:32;;;;;;;7.40;2.67;;;8.60;99.90;;;;;;5045008;28;20458;-78
2021/12/28 06:01:59;;;;;;;9.37;3.10;;;8.50;99.90;;;;;;5041542;28;20836;-80
2021/12/28 06:04:27;;;;;;;10.70;3.97;;;8.60;99.90;;;;;;5043147;28;21017;-79
2021/12/28 06:06:54;;;;;;;11.80;3.73;;;8.70;99.90;;;;;;5054796;28;20448;-79
2021/12/28 06:09:21;;;;;;;10.50;3.30;;;8.70;99.90;;;;;;5042018;28;20463;-80
2021/12/28 06:11:47;;;;;;;12.73;4.03;;;8.70;99.90;;;;;;5057363;28;20456;-80
2021/12/28 06:14:14;;;;;;;7.33;3.50;;;8.70;99.90;;;;;;5048468;28;20469;-78
2021/12/28 06:16:41;;;;;;;8.60;3.07;;;8.70;99.90;;;;;;5041627;28;20992;-80
2021/12/28 06:19:08;;;;;;;11.93;3.23;;;8.60;99.90;;;;;;5037302;28;20455;-81
2021/12/28 06:21:37;;;;;;;10.97;3.30;;;8.70;99.90;;;;;;5040198;28;20458;-80
2021/12/28 06:24:06;;;;;;;8.70;3.43;;;8.70;99.90;;;;;;5056732;28;20488;-79
2021/12/28 06:26:35;;;;;;;9.57;3.57;;;8.70;99.90;;;;;;5055540;28;20467;-81
2021/12/28 06:29:04;;;;;;;9.60;3.37;;;8.90;99.90;;;;;;5038555;28;20489;-82
2021/12/28 06:31:30;;;;;;;10.90;3.40;;;8.90;99.90;;;;;;5023133;28;20459;-82
2021/12/28 06:33:58;;;;;;;9.80;3.43;;;9.00;99.90;;;;;;5042127;28;20552;-80
2021/12/28 06:36:25;;;;;;;6.67;2.67;;;9.00;99.90;;;;;;5039541;28;20453;-82
2021/12/28 06:38:53;;;;;;;10.80;3.90;;;9.10;99.90;;;;;;5047170;28;20452;-82
2021/12/28 06:41:20;;;;;;;6.83;2.63;;;9.10;99.90;;;;;;5058531;28;20448;-83
2021/12/28 06:43:48;;;;;;;12.23;3.73;;;9.20;99.90;;;;;;5038040;28;20491;-81
2021/12/28 06:46:15;;;;;;;6.80;3.03;;;9.10;99.90;;;;;;5044085;28;20462;-80
2021/12/28 06:48:42;;;;;;;7.57;3.00;;;9.10;99.90;;;;;;5041423;28;20968;-81
2021/12/28 06:51:09;;;;;;;9.47;3.17;;;9.10;99.90;;;;;;5037143;28;20783;-81
2021/12/28 06:53:36;;;;;;;4.20;2.63;;;9.10;99.90;;;;;;5036906;28;20480;-81
2021/12/28 06:56:05;;;;;;;9.80;4.20;;;9.10;99.90;;;;;;5049843;28;20459;-80
2021/12/28 06:58:32;;;;;;;7.70;3.03;;;9.20;99.90;;;;;;5041773;28;20453;-81
2021/12/28 07:00:59;;;;;;;6.70;2.90;;;9.20;99.90;;;;;;5048299;28;20463;-82
2021/12/28 07:03:26;;;;;;;8.33;2.83;;;9.20;99.90;;;;;;5048801;28;20481;-80
2021/12/28 07:05:52;;;;;;;7.10;2.63;;;9.20;99.90;;;;;;5036658;28;20463;-81
2021/12/28 07:08:19;;;;;;;9.90;3.70;;;9.10;99.90;;;;;;5037630;28;20453;-81
2021/12/28 07:10:46;;;;;;;7.70;3.27;;;9.00;99.90;;;;;;5036359;28;20449;-80
2021/12/28 07:13:14;;;;;;;6.80;2.67;;;9.00;99.90;;;;;;5040225;28;20470;-82
2021/12/28 07:15:41;;;;;;;8.10;3.10;;;8.90;99.90;;;;;;5055947;28;20456;-81
2021/12/28 07:18:08;;;;;;;7.93;2.43;;;8.80;99.90;;;;;;5046392;28;20836;-80
2021/12/28 07:20:35;;;;;;;6.80;2.50;;;8.70;99.90;;;;;;5036530;28;20444;-82
2021/12/28 07:23:01;;;;;;;5.23;2.87;;;8.60;99.90;;;;;;5047207;28;20476;-81
2021/12/28 07:25:29;;;;;;;6.70;2.60;;;8.60;99.90;;;;;;5058052;28;20605;-81
2021/12/28 07:27:56;;;;;;;6.13;2.93;;;8.50;99.90;;;;;;5048625;28;20479;-80
2021/12/28 07:30:24;;;;;;;6.93;2.40;;;8.60;99.90;;;;;;5038933;28;20456;-80
2021/12/28 07:32:51;;;;;;;7.10;2.07;;;8.60;99.90;;;;;;5033605;28;20473;-79
2021/12/28 07:35:18;;;;;;;9.50;3.60;;;8.60;99.90;;;;;;5054598;28;20836;-80
2021/12/28 07:37:44;;;;;;;5.00;3.10;;;8.60;99.90;;;;;;5046734;28;20453;-80
2021/12/28 07:40:12;;;;;;;8.20;3.13;;;8.60;99.90;;;;;;5033211;28;20491;-80
2021/12/28 07:42:40;;;;;;;4.23;2.60;;;8.60;99.90;;;;;;5046491;28;20468;-80
2021/12/28 07:45:10;;;;;;;5.10;2.70;;;8.60;99.90;;;;;;5042772;28;20551;-80
2021/12/28 07:47:38;;;;;;;8.77;3.90;;;8.60;99.90;;;;;;5048819;28;20861;-81
2021/12/28 07:50:07;;;;;;;8.70;2.47;;;8.60;99.90;;;;;;5032850;28;20462;-80
2021/12/28 07:52:34;;;;;;;6.83;3.40;;;8.60;99.90;;;;;;5032145;28;20456;-80
2021/12/28 07:55:00;;;;;;;8.00;2.87;;;8.60;99.90;;;;;;5034379;28;20452;-80
2021/12/28 07:57:27;;;;;;;5.20;2.60;;;8.50;99.90;;;;;;5020971;28;20461;-80
2021/12/28 07:59:54;;;;;;;8.97;2.83;;;8.40;99.90;;;;;;5023625;28;20532;-80
2021/12/28 08:02:21;;;;;;;4.37;2.00;;;8.40;99.90;;;;;;5027097;28;20445;-80
2021/12/28 08:04:49;;;;;;;3.53;2.10;;;8.50;99.90;;;;;;5024509;28;21020;-81
2021/12/28 08:07:16;;;;;;;8.73;2.70;;;8.50;99.90;;;;;;5028753;28;20446;-80
2021/12/28 08:09:43;;;;;;;5.40;2.37;;;8.50;99.90;;;;;;5024975;28;20461;-81
2021/12/28 08:12:11;;;;;;;7.50;2.70;;;8.60;99.90;;;;;;5013954;28;20461;-81
2021/12/28 08:14:37;;;;;;;6.10;2.33;;;8.50;99.90;;;;;;5032441;28;20468;-80
2021/12/28 08:17:04;;;;;;;4.53;2.07;;;8.40;99.90;;;;;;5021782;28;20452;-80
2021/12/28 08:19:31;;;;;;;14.03;3.60;;;8.50;99.90;;;;;;5034185;28;20454;-81
2021/12/28 08:22:00;;;;;;;5.03;1.83;;;8.60;99.90;;;;;;5034983;28;20507;-81
2021/12/28 08:24:27;;;;;;;6.40;1.87;;;8.60;99.90;;;;;;5034894;28;20494;-80
2021/12/28 08:26:54;;;;;;;4.10;1.57;;;8.70;99.90;;;;;;5025741;28;20455;-81
2021/12/28 08:29:20;;;;;;;4.27;2.10;;;8.80;99.90;;;;;;5041550;28;20445;-80
2021/12/28 08:31:47;;;;;;;5.97;1.83;;;8.80;99.90;;;;;;5045348;28;21012;-81
2021/12/28 08:34:14;;;;;;;7.13;2.40;;;8.90;99.90;;;;;;5051448;28;20472;-81
2021/12/28 08:36:41;;;;;;;3.10;1.60;;;8.80;99.90;;;;;;5031396;28;20492;-81
2021/12/28 08:39:09;;;;;;;5.83;1.80;;;8.80;99.90;;;;;;5039729;28;20491;-81
2021/12/28 08:41:36;;;;;;;8.00;2.63;;;8.90;99.90;;;;;;5027011;28;20453;-81
2021/12/28 08:44:03;;;;;;;4.20;2.00;;;9.00;99.90;;;;;;5030659;28;21028;-81
2021/12/28 08:46:30;;;;;;;2.27;1.50;;;9.20;99.90;;;;;;5017995;28;20830;-81
2021/12/28 08:48:57;;;;;;;3.00;1.67;;;9.40;99.90;;;;;;5024227;28;20453;-81
2021/12/28 08:51:24;;;;;;;5.03;1.73;;;9.60;99.90;;;;;;5024707;28;20825;-80
2021/12/28 08:53:51;;;;;;;4.67;1.70;;;9.70;99.90;;;;;;5017454;28;21018;-81
2021/12/28 08:56:22;;;;;;;2.83;1.33;;;9.80;99.90;;;;;;5022201;28;20829;-80
2021/12/28 08:58:50;;;;;;;3.23;1.20;;;9.80;99.90;;;;;;5026103;28;20442;-81
2021/12/28 09:01:17;;;;;;;3.50;1.60;;;9.90;99.90;;;;;;5033978;28;20875;-81
2021/12/28 09:03:44;;;;;;;2.73;1.40;;;10.00;99.90;;;;;;5027728;28;21053;-80
2021/12/28 09:06:12;;;;;;;4.87;1.30;;;10.10;99.90;;;;;;5020076;28;20574;-80
2021/12/28 09:08:38;;;;;;;4.67;1.80;;;10.20;99.90;;;;;;5034893;28;20453;-81
2021/12/28 09:11:06;;;;;;;3.30;1.40;;;10.20;99.90;;;;;;5027197;28;20436;-81
2021/12/28 09:13:34;;;;;;;3.63;1.53;;;10.30;99.90;;;;;;5035945;28;20550;-80
2021/12/28 09:16:01;;;;;;;4.00;1.37;;;10.40;99.90;;;;;;5036022;28;20451;-81
2021/12/28 09:18:27;;;;;;;6.47;1.80;;;10.50;99.90;;;;;;5023602;28;20441;-82
2021/12/28 09:20:56;;;;;;;6.00;1.73;;;10.70;99.90;;;;;;5028519;28;20832;-81
2021/12/28 09:23:23;;;;;;;2.63;1.20;;;10.70;99.90;;;;;;5031005;28;20477;-81
2021/12/28 09:25:50;;;;;;;3.93;0.90;;;10.70;99.90;;;;;;5024469;28;20577;-80
2021/12/28 09:28:17;;;;;;;3.60;1.20;;;10.80;99.90;;;;;;5036946;28;20450;-82
2021/12/28 09:30:45;;;;;;;2.47;1.07;;;10.80;99.90;;;;;;5025331;28;20460;-81
2021/12/28 09:33:12;;;;;;;2.80;0.90;;;10.90;99.90;;;;;;5031900;28;20463;-82
2021/12/28 09:35:39;;;;;;;6.07;1.50;;;11.00;99.90;;;;;;5040071;28;20531;-82
2021/12/28 09:38:07;;;;;;;4.73;1.67;;;11.00;99.90;;;;;;5038621;28;20461;-81
2021/12/28 09:40:35;;;;;;;3.40;1.10;;;11.00;99.90;;;;;;5039119;28;20454;-82
2021/12/28 09:43:03;;;;;;;2.47;1.00;;;10.90;99.90;;;;;;5039275;28;20990;-81
2021/12/28 09:45:30;;;;;;;5.20;1.47;;;11.10;99.90;;;;;;5043755;28;20481;-80
2021/12/28 09:47:58;;;;;;;2.63;0.97;;;11.30;99.90;;;;;;5039775;28;20468;-82
2021/12/28 09:50:25;;;;;;;4.43;1.40;;;11.60;99.90;;;;;;5038259;28;20469;-81
2021/12/28 09:52:52;;;;;;;3.30;1.10;;;11.70;99.90;;;;;;5038877;28;20474;-81
2021/12/28 09:55:23;;;;;;;8.37;1.30;;;11.50;99.90;;;;;;5038662;28;20453;-81
2021/12/28 09:57:50;;;;;;;2.70;1.10;;;11.70;99.90;;;;;;5033821;28;20450;-81
2021/12/28 10:00:19;;;;;;;3.10;1.27;;;11.80;99.90;;;;;;5033527;28;20566;-82
2021/12/28 10:02:46;;;;;;;3.10;1.23;;;11.90;99.90;;;;;;5030628;28;20872;-83
2021/12/28 10:05:18;;;;;;;2.20;0.90;;;12.00;99.90;;;;;;5032967;28;20998;-81
2021/12/28 10:07:48;;;;;;;2.30;1.10;;;12.10;99.90;;;;;;5030644;28;20455;-80
2021/12/28 10:10:15;;;;;;;3.50;1.70;;;12.10;99.90;;;;;;5034308;28;20465;-80
2021/12/28 10:12:45;;;;;;;3.07;1.10;;;12.00;99.90;;;;;;5035255;28;20453;-80
2021/12/28 10:15:14;;;;;;;2.47;0.90;;;11.90;99.90;;;;;;5038653;28;20460;-81
2021/12/28 10:17:44;;;;;;;2.77;0.90;;;11.90;99.90;;;;;;5033272;28;20521;-82
2021/12/28 10:20:15;;;;;;;3.40;1.10;;;11.80;99.90;;;;;;5039829;28;20449;-82
2021/12/28 10:22:46;;;;;;;1.90;1.00;;;12.00;99.90;;;;;;5038106;28;20463;-81
2021/12/28 10:25:15;;;;;;;3.33;1.10;;;11.80;99.90;;;;;;5025436;28;20486;-82
2021/12/28 10:27:44;;;;;;;2.17;0.90;;;11.80;99.90;;;;;;5027316;28;20453;-82
2021/12/28 10:30:14;;;;;;;2.50;0.80;;;11.70;99.90;;;;;;5031313;28;21062;-81
2021/12/28 10:32:44;;;;;;;2.63;1.43;;;11.60;99.90;;;;;;5027338;28;20971;-81
2021/12/28 10:35:17;;;;;;;2.77;0.97;;;11.60;99.90;;;;;;5026765;28;20444;-82
2021/12/28 10:37:47;;;;;;;1.93;0.90;;;11.40;99.90;;;;;;5031355;28;20459;-82
2021/12/28 10:40:21;;;;;;;3.90;0.90;;;11.40;99.90;;;;;;5027553;28;20447;-82
2021/12/28 10:42:51;;;;;;;2.40;1.10;;;11.40;99.90;;;;;;5033143;28;20486;-82
2021/12/28 10:45:21;;;;;;;2.87;1.20;;;11.20;99.90;;;;;;5027253;28;20490;-82
2021/12/28 10:47:50;;;;;;;1.70;0.90;;;11.10;99.90;;;;;;5034060;28;20461;-77
2021/12/28 10:50:31;;;;;;;2.43;0.90;;;11.00;99.90;;;;;;5032037;28;20996;-81
2021/12/28 10:53:11;;;;;;;2.00;0.97;;;11.00;99.90;;;;;;5023406;28;20902;-79
2021/12/28 10:55:39;;;;;;;1.60;1.00;;;11.00;99.90;;;;;;5030952;28;20944;-79
2021/12/28 10:58:06;;;;;;;1.70;0.90;;;11.00;99.90;;;;;;5033489;28;20450;-81
2021/12/28 11:00:37;;;;;;;2.53;0.90;;;11.10;99.90;;;;;;5039942;28;20506;-82
2021/12/28 11:03:30;;;;;;;2.17;1.20;;;11.00;99.90;;;;;;5025656;28;20900;-82
2021/12/28 11:06:00;;;;;;;1.87;0.80;;;11.10;99.90;;;;;;5037105;28;20489;-82
2021/12/28 11:08:29;;;;;;;1.50;0.80;;;11.10;99.90;;;;;;5040336;28;20447;-82
2021/12/28 11:10:59;;;;;;;2.23;0.80;;;11.00;99.90;;;;;;5035565;28;20481;-81
2021/12/28 11:13:28;;;;;;;2.53;0.90;;;10.90;99.90;;;;;;5035659;28;20469;-80
2021/12/28 11:15:55;;;;;;;3.20;1.17;;;11.10;99.90;;;;;;5035442;28;20888;-81
2021/12/28 11:18:25;;;;;;;1.70;0.80;;;11.30;99.90;;;;;;5029067;28;20478;-80
2021/12/28 11:20:54;;;;;;;1.80;0.90;;;11.20;99.90;;;;;;5029138;28;20446;-81
2021/12/28 11:23:25;;;;;;;1.80;0.80;;;11.10;99.90;;;;;;5033411;28;21019;-80
2021/12/28 11:26:12;;;;;;;1.60;0.80;;;11.10;99.90;;;;;;5034026;28;20490;-81
2021/12/28 11:28:41;;;;;;;1.50;0.70;;;11.10;99.90;;;;;;5035455;28;20498;-81
2021/12/28 11:31:12;;;;;;;1.80;0.80;;;11.10;99.90;;;;;;5030575;28;20451;-81
2021/12/28 11:34:07;;;;;;;1.60;0.70;;;11.00;99.90;;;;;;5032048;28;20549;-80
2021/12/28 11:36:36;;;;;;;1.60;0.80;;;11.00;99.90;;;;;;5029108;28;20512;-81
2021/12/28 11:39:09;;;;;;;1.90;1.10;;;10.90;99.90;;;;;;5026473;28;20825;-81
2021/12/28 11:41:37;;;;;;;2.00;1.00;;;10.90;99.90;;;;;;5032008;28;20451;-84
2021/12/28 11:44:04;;;;;;;2.33;1.40;;;11.00;99.90;;;;;;5034604;28;20480;-81
2021/12/28 11:46:31;;;;;;;3.50;2.10;;;10.90;99.90;;;;;;5028136;28;20517;-81
2021/12/28 11:48:59;;;;;;;1.90;1.10;;;10.90;99.90;;;;;;5019601;28;20460;-81
2021/12/28 11:51:27;;;;;;;2.57;1.10;;;10.90;99.90;;;;;;5026061;28;20839;-80
2021/12/28 11:53:55;;;;;;;2.50;1.23;;;10.90;99.90;;;;;;5032810;28;20468;-81
2021/12/28 11:56:28;;;;;;;2.40;1.10;;;10.80;99.90;;;;;;5022711;28;20511;-81
2021/12/28 11:59:06;;;;;;;2.40;0.97;;;10.80;99.90;;;;;;5031991;28;20816;-82
2021/12/28 12:02:03;;;;;;;1.90;1.03;;;10.70;99.90;;;;;;5023677;28;20446;-82
2021/12/28 12:04:56;;;;;;;3.27;1.07;;;10.80;99.90;;;;;;5018866;28;20467;-81
2021/12/28 12:07:36;;;;;;;1.80;1.00;;;10.70;99.90;;;;;;5018488;28;20566;-82
2021/12/28 12:10:31;;;;;;;2.27;0.93;;;10.60;99.90;;;;;;5026693;28;20807;-81
2021/12/28 12:13:29;;;;;;;2.00;0.80;;;10.70;99.90;;;;;;5041753;28;20471;-81
2021/12/28 12:15:58;;;;;;;2.07;1.00;;;10.80;99.90;;;;;;5032493;28;20473;-81
2021/12/28 12:18:29;;;;;;;2.20;1.07;;;10.90;99.90;;;;;;5015463;28;20465;-81
2021/12/28 12:21:02;;;;;;;1.70;1.00;;;10.90;99.90;;;;;;5013744;28;20849;-81
2021/12/28 12:23:31;;;;;;;1.60;0.90;;;10.80;99.90;;;;;;5018104;28;20478;-81
2021/12/28 12:26:09;;;;;;;2.90;1.07;;;10.80;99.90;;;;;;5034811;28;20494;-79
2021/12/28 12:28:47;;;;;;;4.80;0.93;;;10.70;99.90;;;;;;5032402;28;20455;-79
2021/12/28 12:31:30;;;;;;;1.60;1.00;;;10.50;99.90;;;;;;5035464;28;20461;-80
2021/12/28 12:33:58;;;;;;;2.03;0.97;;;10.40;99.90;;;;;;5039479;28;20469;-81
2021/12/28 12:36:38;;;;;;;2.00;1.40;;;10.30;99.90;;;;;;5040339;28;20442;-81
2021/12/28 12:39:07;;;;;;;2.67;1.10;;;10.30;99.90;;;;;;5048450;28;20531;-80
2021/12/28 12:41:44;;;;;;;2.80;1.63;;;10.30;99.90;;;;;;5060434;28;20449;-83
2021/12/28 12:44:16;;;;;;;3.40;1.40;;;10.20;99.90;;;;;;5043624;28;20466;-81
2021/12/28 12:46:46;;;;;;;1.97;1.00;;;10.20;99.90;;;;;;5041077;28;20486;-80
2021/12/28 12:49:24;;;;;;;2.27;1.40;;;10.30;99.90;;;;;;5041077;28;20527;-80
2021/12/28 12:51:57;;;;;;;2.57;1.17;;;10.30;99.90;;;;;;5040956;28;20485;-81
2021/12/28 12:54:31;;;;;;;2.33;1.30;;;10.20;99.90;;;;;;5041040;28;20471;-81
2021/12/28 12:57:10;;;;;;;2.57;1.10;;;10.20;99.90;;;;;;5040631;28;20447;-81
2021/12/28 12:59:57;;;;;;;3.00;1.10;;;10.10;99.90;;;;;;5047459;28;20458;-78